sensor_id;sensor_type;location;lat;lon;timestamp;P1;durP1;ratioP1;P2;durP2;ratioP2
74586;SDS011;63088;51.090;-115.358;2022-09-09T00:04:33;2.20;;;0.60;;
74586;SDS011;63088;51.090;-115.358;2022-09-09T00:07:32;1.80;;;0.80;;
74586;SDS011;63088;51.090;-115.358;2022-09-09T00:10:26;1.90;;;0.80;;
74586;SDS011;63088;51.090;-115.358;2022-09-09T00:16:22;1.60;;;0.70;;
74586;SDS011;63088;51.090;-115.358;2022-09-09T00:19:20;1.20;;;0.70;;
74586;SDS011;63088;51.090;-115.358;2022-09-09T00:22:18;2.30;;;0.70;;
74586;SDS011;63088;51.090;-115.358;2022-09-09T00:24:53;3.20;;;0.90;;
74586;SDS011;63088;51.090;-115.358;2022-09-09T00:27:26;1.80;;;0.80;;
74586;SDS011;63088;51.090;-115.358;2022-09-09T00:32:46;1.40;;;0.70;;
74586;SDS011;63088;51.090;-115.358;2022-09-09T00:35:34;1.50;;;0.70;;
74586;SDS011;63088;51.090;-115.358;2022-09-09T00:38:25;1.70;;;0.70;;
74586;SDS011;63088;51.090;-115.358;2022-09-09T00:41:30;1.40;;;0.70;;
74586;SDS011;63088;51.090;-115.358;2022-09-09T00:44:33;1.60;;;0.70;;
74586;SDS011;63088;51.090;-115.358;2022-09-09T00:56:20;1.80;;;0.70;;
74586;SDS011;63088;51.090;-115.358;2022-09-09T01:02:37;1.40;;;0.80;;
74586;SDS011;63088;51.090;-115.358;2022-09-09T01:05:23;2.10;;;0.90;;
74586;SDS011;63088;51.090;-115.358;2022-09-09T01:08:08;1.60;;;0.70;;
74586;SDS011;63088;51.090;-115.358;2022-09-09T01:11:15;2.10;;;0.80;;
74586;SDS011;63088;51.090;-115.358;2022-09-09T01:17:28;2.10;;;0.80;;
74586;SDS011;63088;51.090;-115.358;2022-09-09T01:26:04;2.40;;;0.90;;
74586;SDS011;63088;51.090;-115.358;2022-09-09T01:28:55;1.80;;;0.90;;
74586;SDS011;63088;51.090;-115.358;2022-09-09T01:31:41;1.60;;;0.70;;
74586;SDS011;63088;51.090;-115.358;2022-09-09T01:34:17;1.70;;;1.00;;
74586;SDS011;63088;51.090;-115.358;2022-09-09T01:39:44;2.10;;;0.70;;
74586;SDS011;63088;51.090;-115.358;2022-09-09T01:42:14;1.90;;;0.90;;
74586;SDS011;63088;51.090;-115.358;2022-09-09T01:44:45;1.90;;;0.90;;
74586;SDS011;63088;51.090;-115.358;2022-09-09T01:47:11;1.90;;;0.70;;
74586;SDS011;63088;51.090;-115.358;2022-09-09T01:49:38;1.90;;;0.80;;
74586;SDS011;63088;51.090;-115.358;2022-09-09T01:52:05;2.40;;;0.90;;
74586;SDS011;63088;51.090;-115.358;2022-09-09T01:54:38;1.80;;;0.90;;
74586;SDS011;63088;51.090;-115.358;2022-09-09T02:00:06;1.90;;;0.80;;
74586;SDS011;63088;51.090;-115.358;2022-09-09T02:03:20;1.60;;;1.00;;
74586;SDS011;63088;51.090;-115.358;2022-09-09T02:09:03;2.10;;;0.90;;
74586;SDS011;63088;51.090;-115.358;2022-09-09T02:11:35;2.00;;;0.80;;
74586;SDS011;63088;51.090;-115.358;2022-09-09T02:14:12;1.90;;;0.90;;
74586;SDS011;63088;51.090;-115.358;2022-09-09T02:17:15;2.20;;;0.90;;
74586;SDS011;63088;51.090;-115.358;2022-09-09T02:20:08;2.00;;;0.90;;
74586;SDS011;63088;51.090;-115.358;2022-09-09T02:22:44;1.80;;;0.90;;
74586;SDS011;63088;51.090;-115.358;2022-09-09T02:25:18;2.00;;;1.00;;
74586;SDS011;63088;51.090;-115.358;2022-09-09T02:27:54;1.80;;;0.90;;
74586;SDS011;63088;51.090;-115.358;2022-09-09T02:30:28;1.80;;;0.90;;
74586;SDS011;63088;51.090;-115.358;2022-09-09T02:33:03;2.20;;;0.90;;
74586;SDS011;63088;51.090;-115.358;2022-09-09T02:35:49;1.90;;;0.80;;
74586;SDS011;63088;51.090;-115.358;2022-09-09T02:38:21;1.80;;;0.90;;
74586;SDS011;63088;51.090;-115.358;2022-09-09T02:40:55;1.60;;;0.80;;
74586;SDS011;63088;51.090;-115.358;2022-09-09T02:43:31;1.60;;;0.80;;
74586;SDS011;63088;51.090;-115.358;2022-09-09T02:46:26;1.50;;;0.80;;
74586;SDS011;63088;51.090;-115.358;2022-09-09T02:49:33;2.00;;;0.90;;
74586;SDS011;63088;51.090;-115.358;2022-09-09T02:56:08;2.80;;;0.80;;
74586;SDS011;63088;51.090;-115.358;2022-09-09T02:58:44;1.80;;;0.90;;
74586;SDS011;63088;51.090;-115.358;2022-09-09T03:01:18;1.70;;;0.80;;
74586;SDS011;63088;51.090;-115.358;2022-09-09T03:03:45;2.10;;;0.90;;
74586;SDS011;63088;51.090;-115.358;2022-09-09T03:06:33;1.70;;;0.70;;
74586;SDS011;63088;51.090;-115.358;2022-09-09T03:09:04;2.40;;;1.10;;
74586;SDS011;63088;51.090;-115.358;2022-09-09T03:11:36;2.20;;;1.00;;
74586;SDS011;63088;51.090;-115.358;2022-09-09T03:14:04;2.00;;;0.90;;
74586;SDS011;63088;51.090;-115.358;2022-09-09T03:16:31;2.10;;;1.00;;
74586;SDS011;63088;51.090;-115.358;2022-09-09T03:19:03;1.70;;;0.80;;
74586;SDS011;63088;51.090;-115.358;2022-09-09T03:21:43;1.70;;;1.00;;
74586;SDS011;63088;51.090;-115.358;2022-09-09T03:24:18;1.90;;;1.10;;
74586;SDS011;63088;51.090;-115.358;2022-09-09T03:26:45;1.80;;;0.80;;
74586;SDS011;63088;51.090;-115.358;2022-09-09T03:29:22;2.20;;;1.10;;
74586;SDS011;63088;51.090;-115.358;2022-09-09T03:31:52;2.50;;;0.90;;
74586;SDS011;63088;51.090;-115.358;2022-09-09T03:34:29;2.40;;;1.10;;
74586;SDS011;63088;51.090;-115.358;2022-09-09T03:37:13;2.40;;;1.20;;
74586;SDS011;63088;51.090;-115.358;2022-09-09T03:39:40;2.00;;;0.90;;
74586;SDS011;63088;51.090;-115.358;2022-09-09T03:42:06;1.90;;;0.90;;
74586;SDS011;63088;51.090;-115.358;2022-09-09T03:44:33;1.60;;;0.90;;
74586;SDS011;63088;51.090;-115.358;2022-09-09T03:47:08;2.10;;;1.00;;
74586;SDS011;63088;51.090;-115.358;2022-09-09T03:49:44;2.10;;;1.10;;
74586;SDS011;63088;51.090;-115.358;2022-09-09T03:52:11;2.70;;;1.10;;
74586;SDS011;63088;51.090;-115.358;2022-09-09T03:54:38;1.90;;;1.10;;
74586;SDS011;63088;51.090;-115.358;2022-09-09T03:59:45;1.70;;;0.90;;
74586;SDS011;63088;51.090;-115.358;2022-09-09T04:02:15;2.30;;;1.20;;
74586;SDS011;63088;51.090;-115.358;2022-09-09T04:04:41;1.80;;;0.80;;
74586;SDS011;63088;51.090;-115.358;2022-09-09T04:07:08;2.20;;;1.10;;
74586;SDS011;63088;51.090;-115.358;2022-09-09T04:09:46;2.00;;;0.90;;
74586;SDS011;63088;51.090;-115.358;2022-09-09T04:12:13;1.90;;;1.00;;
74586;SDS011;63088;51.090;-115.358;2022-09-09T04:14:42;2.20;;;1.00;;
74586;SDS011;63088;51.090;-115.358;2022-09-09T04:17:17;1.80;;;1.00;;
74586;SDS011;63088;51.090;-115.358;2022-09-09T04:19:47;2.50;;;1.10;;
74586;SDS011;63088;51.090;-115.358;2022-09-09T04:22:16;2.70;;;1.10;;
74586;SDS011;63088;51.090;-115.358;2022-09-09T04:24:44;1.90;;;0.90;;
74586;SDS011;63088;51.090;-115.358;2022-09-09T04:27:13;1.50;;;0.80;;
74586;SDS011;63088;51.090;-115.358;2022-09-09T04:29:40;2.20;;;1.00;;
74586;SDS011;63088;51.090;-115.358;2022-09-09T04:32:07;2.80;;;1.00;;
74586;SDS011;63088;51.090;-115.358;2022-09-09T04:34:36;1.80;;;0.90;;
74586;SDS011;63088;51.090;-115.358;2022-09-09T04:37:06;2.00;;;1.00;;
74586;SDS011;63088;51.090;-115.358;2022-09-09T04:39:39;2.30;;;1.10;;
74586;SDS011;63088;51.090;-115.358;2022-09-09T04:42:06;2.70;;;1.10;;
74586;SDS011;63088;51.090;-115.358;2022-09-09T04:44:33;2.00;;;0.80;;
74586;SDS011;63088;51.090;-115.358;2022-09-09T04:47:08;2.00;;;1.10;;
74586;SDS011;63088;51.090;-115.358;2022-09-09T04:49:49;1.90;;;1.10;;
74586;SDS011;63088;51.090;-115.358;2022-09-09T04:52:16;2.00;;;1.20;;
74586;SDS011;63088;51.090;-115.358;2022-09-09T04:54:43;2.00;;;1.00;;
74586;SDS011;63088;51.090;-115.358;2022-09-09T04:57:11;2.10;;;1.00;;
74586;SDS011;63088;51.090;-115.358;2022-09-09T04:59:37;2.50;;;1.10;;
74586;SDS011;63088;51.090;-115.358;2022-09-09T05:02:10;2.10;;;1.00;;
74586;SDS011;63088;51.090;-115.358;2022-09-09T05:04:37;2.40;;;1.10;;
74586;SDS011;63088;51.090;-115.358;2022-09-09T05:07:07;2.60;;;1.10;;
74586;SDS011;63088;51.090;-115.358;2022-09-09T05:09:37;2.30;;;1.00;;
74586;SDS011;63088;51.090;-115.358;2022-09-09T05:12:04;2.00;;;1.10;;
74586;SDS011;63088;51.090;-115.358;2022-09-09T05:14:31;2.10;;;1.00;;
74586;SDS011;63088;51.090;-115.358;2022-09-09T05:16:57;2.40;;;1.10;;
74586;SDS011;63088;51.090;-115.358;2022-09-09T05:19:36;2.40;;;1.20;;
74586;SDS011;63088;51.090;-115.358;2022-09-09T05:22:20;2.50;;;1.20;;
74586;SDS011;63088;51.090;-115.358;2022-09-09T05:24:52;2.10;;;1.00;;
74586;SDS011;63088;51.090;-115.358;2022-09-09T05:27:44;2.60;;;1.00;;
74586;SDS011;63088;51.090;-115.358;2022-09-09T05:30:21;2.70;;;1.20;;
74586;SDS011;63088;51.090;-115.358;2022-09-09T05:32:56;2.20;;;1.00;;
74586;SDS011;63088;51.090;-115.358;2022-09-09T05:35:31;2.20;;;1.10;;
74586;SDS011;63088;51.090;-115.358;2022-09-09T05:38:02;2.40;;;1.10;;
74586;SDS011;63088;51.090;-115.358;2022-09-09T05:40:47;2.00;;;1.10;;
74586;SDS011;63088;51.090;-115.358;2022-09-09T05:43:29;2.60;;;1.30;;
74586;SDS011;63088;51.090;-115.358;2022-09-09T05:46:08;2.50;;;1.20;;
74586;SDS011;63088;51.090;-115.358;2022-09-09T05:48:46;2.70;;;1.20;;
74586;SDS011;63088;51.090;-115.358;2022-09-09T05:51:26;2.00;;;1.00;;
74586;SDS011;63088;51.090;-115.358;2022-09-09T05:54:05;2.00;;;0.90;;
74586;SDS011;63088;51.090;-115.358;2022-09-09T05:56:43;1.90;;;1.00;;
74586;SDS011;63088;51.090;-115.358;2022-09-09T05:59:18;2.40;;;1.20;;
74586;SDS011;63088;51.090;-115.358;2022-09-09T06:01:51;2.00;;;1.00;;
74586;SDS011;63088;51.090;-115.358;2022-09-09T06:04:24;2.10;;;1.00;;
74586;SDS011;63088;51.090;-115.358;2022-09-09T06:07:00;4.10;;;1.20;;
74586;SDS011;63088;51.090;-115.358;2022-09-09T06:09:31;2.30;;;1.20;;
74586;SDS011;63088;51.090;-115.358;2022-09-09T06:12:21;2.30;;;1.10;;
74586;SDS011;63088;51.090;-115.358;2022-09-09T06:14:54;2.50;;;1.00;;
74586;SDS011;63088;51.090;-115.358;2022-09-09T06:17:32;1.90;;;1.00;;
74586;SDS011;63088;51.090;-115.358;2022-09-09T06:20:13;2.30;;;0.90;;
74586;SDS011;63088;51.090;-115.358;2022-09-09T06:22:43;1.60;;;0.90;;
74586;SDS011;63088;51.090;-115.358;2022-09-09T06:25:17;2.40;;;1.10;;
74586;SDS011;63088;51.090;-115.358;2022-09-09T06:27:48;2.90;;;1.30;;
74586;SDS011;63088;51.090;-115.358;2022-09-09T06:30:15;2.80;;;1.10;;
74586;SDS011;63088;51.090;-115.358;2022-09-09T06:32:42;1.80;;;0.90;;
74586;SDS011;63088;51.090;-115.358;2022-09-09T06:35:10;1.80;;;0.90;;
74586;SDS011;63088;51.090;-115.358;2022-09-09T06:37:36;1.80;;;1.00;;
74586;SDS011;63088;51.090;-115.358;2022-09-09T06:40:03;2.10;;;1.10;;
74586;SDS011;63088;51.090;-115.358;2022-09-09T06:42:30;1.90;;;1.00;;
74586;SDS011;63088;51.090;-115.358;2022-09-09T06:44:57;1.90;;;1.10;;
74586;SDS011;63088;51.090;-115.358;2022-09-09T06:47:25;1.90;;;1.10;;
74586;SDS011;63088;51.090;-115.358;2022-09-09T06:49:54;1.80;;;0.90;;
74586;SDS011;63088;51.090;-115.358;2022-09-09T06:52:24;2.10;;;1.00;;
74586;SDS011;63088;51.090;-115.358;2022-09-09T06:54:51;1.70;;;0.90;;
74586;SDS011;63088;51.090;-115.358;2022-09-09T06:57:18;2.30;;;1.00;;
74586;SDS011;63088;51.090;-115.358;2022-09-09T06:59:56;1.90;;;1.10;;
74586;SDS011;63088;51.090;-115.358;2022-09-09T07:02:23;1.70;;;0.80;;
74586;SDS011;63088;51.090;-115.358;2022-09-09T07:04:50;1.70;;;0.90;;
74586;SDS011;63088;51.090;-115.358;2022-09-09T07:07:17;1.80;;;0.70;;
74586;SDS011;63088;51.090;-115.358;2022-09-09T07:09:44;1.90;;;1.00;;
74586;SDS011;63088;51.090;-115.358;2022-09-09T07:12:12;1.50;;;0.90;;
74586;SDS011;63088;51.090;-115.358;2022-09-09T07:14:44;1.90;;;0.90;;
74586;SDS011;63088;51.090;-115.358;2022-09-09T07:17:11;1.80;;;0.90;;
74586;SDS011;63088;51.090;-115.358;2022-09-09T07:19:38;2.10;;;0.70;;
74586;SDS011;63088;51.090;-115.358;2022-09-09T07:22:04;1.70;;;0.90;;
74586;SDS011;63088;51.090;-115.358;2022-09-09T07:24:31;1.50;;;0.70;;
74586;SDS011;63088;51.090;-115.358;2022-09-09T07:27:11;2.10;;;0.80;;
74586;SDS011;63088;51.090;-115.358;2022-09-09T07:29:42;1.80;;;0.90;;
74586;SDS011;63088;51.090;-115.358;2022-09-09T07:32:08;1.50;;;0.70;;
74586;SDS011;63088;51.090;-115.358;2022-09-09T07:34:38;1.80;;;0.80;;
74586;SDS011;63088;51.090;-115.358;2022-09-09T07:37:07;1.70;;;0.70;;
74586;SDS011;63088;51.090;-115.358;2022-09-09T07:39:39;1.70;;;0.80;;
74586;SDS011;63088;51.090;-115.358;2022-09-09T07:42:12;1.60;;;0.70;;
74586;SDS011;63088;51.090;-115.358;2022-09-09T07:44:41;1.80;;;0.70;;
74586;SDS011;63088;51.090;-115.358;2022-09-09T07:47:29;1.60;;;0.70;;
74586;SDS011;63088;51.090;-115.358;2022-09-09T07:49:59;1.60;;;0.80;;
74586;SDS011;63088;51.090;-115.358;2022-09-09T07:52:34;2.20;;;1.00;;
74586;SDS011;63088;51.090;-115.358;2022-09-09T07:55:27;1.40;;;0.70;;
74586;SDS011;63088;51.090;-115.358;2022-09-09T07:58:16;1.30;;;0.50;;
74586;SDS011;63088;51.090;-115.358;2022-09-09T08:00:43;2.20;;;0.70;;
74586;SDS011;63088;51.090;-115.358;2022-09-09T08:03:11;2.10;;;1.00;;
74586;SDS011;63088;51.090;-115.358;2022-09-09T08:05:50;1.30;;;0.60;;
74586;SDS011;63088;51.090;-115.358;2022-09-09T08:08:17;1.60;;;0.70;;
74586;SDS011;63088;51.090;-115.358;2022-09-09T08:10:44;1.40;;;0.70;;
74586;SDS011;63088;51.090;-115.358;2022-09-09T08:13:14;1.20;;;0.60;;
74586;SDS011;63088;51.090;-115.358;2022-09-09T08:15:45;1.40;;;0.70;;
74586;SDS011;63088;51.090;-115.358;2022-09-09T08:18:11;1.30;;;0.50;;
74586;SDS011;63088;51.090;-115.358;2022-09-09T08:20:38;2.00;;;0.60;;
74586;SDS011;63088;51.090;-115.358;2022-09-09T08:23:05;1.70;;;0.50;;
74586;SDS011;63088;51.090;-115.358;2022-09-09T08:25:33;1.50;;;0.60;;
74586;SDS011;63088;51.090;-115.358;2022-09-09T08:28:06;1.50;;;0.80;;
74586;SDS011;63088;51.090;-115.358;2022-09-09T08:30:56;1.40;;;0.50;;
74586;SDS011;63088;51.090;-115.358;2022-09-09T08:33:40;1.30;;;0.70;;
74586;SDS011;63088;51.090;-115.358;2022-09-09T08:36:23;1.70;;;0.50;;
74586;SDS011;63088;51.090;-115.358;2022-09-09T08:38:55;1.60;;;0.60;;
74586;SDS011;63088;51.090;-115.358;2022-09-09T08:44:50;1.30;;;0.60;;
74586;SDS011;63088;51.090;-115.358;2022-09-09T08:47:47;1.10;;;0.60;;
74586;SDS011;63088;51.090;-115.358;2022-09-09T08:50:29;1.20;;;0.60;;
74586;SDS011;63088;51.090;-115.358;2022-09-09T08:53:18;1.50;;;0.50;;
74586;SDS011;63088;51.090;-115.358;2022-09-09T08:58:35;1.20;;;0.60;;
74586;SDS011;63088;51.090;-115.358;2022-09-09T09:08:17;1.30;;;0.50;;
74586;SDS011;63088;51.090;-115.358;2022-09-09T09:10:56;1.20;;;0.50;;
74586;SDS011;63088;51.090;-115.358;2022-09-09T09:19:19;0.80;;;0.40;;
74586;SDS011;63088;51.090;-115.358;2022-09-09T09:25:09;1.90;;;0.70;;
74586;SDS011;63088;51.090;-115.358;2022-09-09T09:30:52;1.10;;;0.50;;
74586;SDS011;63088;51.090;-115.358;2022-09-09T09:36:34;0.80;;;0.40;;
74586;SDS011;63088;51.090;-115.358;2022-09-09T09:39:30;1.20;;;0.40;;
74586;SDS011;63088;51.090;-115.358;2022-09-09T09:42:11;1.50;;;0.50;;
74586;SDS011;63088;51.090;-115.358;2022-09-09T09:44:40;1.20;;;0.60;;
74586;SDS011;63088;51.090;-115.358;2022-09-09T09:50:34;1.70;;;0.50;;
74586;SDS011;63088;51.090;-115.358;2022-09-09T09:53:22;1.10;;;0.50;;
74586;SDS011;63088;51.090;-115.358;2022-09-09T09:56:05;1.50;;;0.60;;
74586;SDS011;63088;51.090;-115.358;2022-09-09T09:58:58;1.40;;;0.50;;
74586;SDS011;63088;51.090;-115.358;2022-09-09T10:01:27;1.20;;;0.50;;
74586;SDS011;63088;51.090;-115.358;2022-09-09T10:04:15;0.80;;;0.40;;
74586;SDS011;63088;51.090;-115.358;2022-09-09T10:06:52;1.30;;;0.50;;
74586;SDS011;63088;51.090;-115.358;2022-09-09T10:09:57;1.60;;;0.50;;
74586;SDS011;63088;51.090;-115.358;2022-09-09T10:12:59;0.90;;;0.40;;
74586;SDS011;63088;51.090;-115.358;2022-09-09T10:19:01;1.20;;;0.40;;
74586;SDS011;63088;51.090;-115.358;2022-09-09T10:24:55;0.80;;;0.30;;
74586;SDS011;63088;51.090;-115.358;2022-09-09T10:28:05;0.90;;;0.40;;
74586;SDS011;63088;51.090;-115.358;2022-09-09T10:31:37;0.90;;;0.50;;
74586;SDS011;63088;51.090;-115.358;2022-09-09T10:34:05;1.10;;;0.40;;
74586;SDS011;63088;51.090;-115.358;2022-09-09T10:36:58;1.20;;;0.50;;
74586;SDS011;63088;51.090;-115.358;2022-09-09T10:39:44;1.20;;;0.40;;
74586;SDS011;63088;51.090;-115.358;2022-09-09T10:42:15;1.00;;;0.40;;
74586;SDS011;63088;51.090;-115.358;2022-09-09T10:47:55;0.80;;;0.40;;
74586;SDS011;63088;51.090;-115.358;2022-09-09T10:53:41;1.30;;;0.40;;
74586;SDS011;63088;51.090;-115.358;2022-09-09T10:56:23;1.10;;;0.50;;
74586;SDS011;63088;51.090;-115.358;2022-09-09T11:10:36;1.20;;;0.50;;
74586;SDS011;63088;51.090;-115.358;2022-09-09T11:24:54;0.80;;;0.40;;
74586;SDS011;63088;51.090;-115.358;2022-09-09T11:27:36;0.80;;;0.30;;
74586;SDS011;63088;51.090;-115.358;2022-09-09T11:36:52;0.70;;;0.40;;
74586;SDS011;63088;51.090;-115.358;2022-09-09T11:39:44;0.90;;;0.40;;
74586;SDS011;63088;51.090;-115.358;2022-09-09T11:42:25;0.80;;;0.30;;
74586;SDS011;63088;51.090;-115.358;2022-09-09T11:45:25;1.30;;;0.30;;
74586;SDS011;63088;51.090;-115.358;2022-09-09T11:48:00;0.80;;;0.40;;
74586;SDS011;63088;51.090;-115.358;2022-09-09T11:50:36;0.60;;;0.30;;
74586;SDS011;63088;51.090;-115.358;2022-09-09T11:53:16;0.80;;;0.40;;
74586;SDS011;63088;51.090;-115.358;2022-09-09T11:56:10;0.90;;;0.40;;
74586;SDS011;63088;51.090;-115.358;2022-09-09T11:58:43;1.10;;;0.40;;
74586;SDS011;63088;51.090;-115.358;2022-09-09T12:01:34;0.70;;;0.30;;
74586;SDS011;63088;51.090;-115.358;2022-09-09T12:06:50;0.80;;;0.40;;
74586;SDS011;63088;51.090;-115.358;2022-09-09T12:09:48;0.80;;;0.40;;
74586;SDS011;63088;51.090;-115.358;2022-09-09T12:12:35;1.10;;;0.40;;
74586;SDS011;63088;51.090;-115.358;2022-09-09T12:15:25;1.00;;;0.40;;
74586;SDS011;63088;51.090;-115.358;2022-09-09T12:18:00;1.30;;;0.40;;
74586;SDS011;63088;51.090;-115.358;2022-09-09T12:20:38;0.70;;;0.40;;
74586;SDS011;63088;51.090;-115.358;2022-09-09T12:26:56;0.90;;;0.30;;
74586;SDS011;63088;51.090;-115.358;2022-09-09T12:30:31;1.30;;;0.40;;
74586;SDS011;63088;51.090;-115.358;2022-09-09T12:32:44;0.90;;;0.40;;
74586;SDS011;63088;51.090;-115.358;2022-09-09T12:35:28;1.10;;;0.40;;
74586;SDS011;63088;51.090;-115.358;2022-09-09T12:38:00;1.00;;;0.40;;
74586;SDS011;63088;51.090;-115.358;2022-09-09T12:40:34;0.80;;;0.40;;
74586;SDS011;63088;51.090;-115.358;2022-09-09T12:43:23;1.20;;;0.40;;
74586;SDS011;63088;51.090;-115.358;2022-09-09T12:46:16;0.60;;;0.30;;
74586;SDS011;63088;51.090;-115.358;2022-09-09T12:49:32;0.80;;;0.40;;
74586;SDS011;63088;51.090;-115.358;2022-09-09T12:55:23;0.70;;;0.30;;
74586;SDS011;63088;51.090;-115.358;2022-09-09T12:57:57;1.00;;;0.50;;
74586;SDS011;63088;51.090;-115.358;2022-09-09T13:00:37;1.30;;;0.40;;
74586;SDS011;63088;51.090;-115.358;2022-09-09T13:03:21;1.20;;;0.40;;
74586;SDS011;63088;51.090;-115.358;2022-09-09T13:05:52;0.80;;;0.40;;
74586;SDS011;63088;51.090;-115.358;2022-09-09T13:08:22;1.00;;;0.40;;
74586;SDS011;63088;51.090;-115.358;2022-09-09T13:11:21;0.70;;;0.40;;
74586;SDS011;63088;51.090;-115.358;2022-09-09T13:14:18;1.10;;;0.40;;
74586;SDS011;63088;51.090;-115.358;2022-09-09T13:17:02;0.90;;;0.40;;
74586;SDS011;63088;51.090;-115.358;2022-09-09T13:19:52;1.00;;;0.40;;
74586;SDS011;63088;51.090;-115.358;2022-09-09T13:25:26;1.10;;;0.40;;
74586;SDS011;63088;51.090;-115.358;2022-09-09T13:28:01;0.80;;;0.30;;
74586;SDS011;63088;51.090;-115.358;2022-09-09T13:30:37;0.80;;;0.40;;
74586;SDS011;63088;51.090;-115.358;2022-09-09T13:35:50;0.60;;;0.30;;
74586;SDS011;63088;51.090;-115.358;2022-09-09T13:38:22;1.00;;;0.40;;
74586;SDS011;63088;51.090;-115.358;2022-09-09T13:41:31;1.10;;;0.50;;
74586;SDS011;63088;51.090;-115.358;2022-09-09T13:44:20;1.20;;;0.40;;
74586;SDS011;63088;51.090;-115.358;2022-09-09T13:47:06;0.90;;;0.40;;
74586;SDS011;63088;51.090;-115.358;2022-09-09T13:49:49;0.90;;;0.40;;
74586;SDS011;63088;51.090;-115.358;2022-09-09T13:52:19;1.00;;;0.30;;
74586;SDS011;63088;51.090;-115.358;2022-09-09T13:54:49;0.90;;;0.40;;
74586;SDS011;63088;51.090;-115.358;2022-09-09T13:57:24;0.80;;;0.40;;
74586;SDS011;63088;51.090;-115.358;2022-09-09T13:59:54;1.20;;;0.40;;
74586;SDS011;63088;51.090;-115.358;2022-09-09T14:02:24;1.30;;;0.40;;
74586;SDS011;63088;51.090;-115.358;2022-09-09T14:04:51;0.60;;;0.40;;
74586;SDS011;63088;51.090;-115.358;2022-09-09T14:07:21;0.80;;;0.40;;
74586;SDS011;63088;51.090;-115.358;2022-09-09T14:09:48;1.10;;;0.40;;
74586;SDS011;63088;51.090;-115.358;2022-09-09T14:12:17;0.80;;;0.30;;
74586;SDS011;63088;51.090;-115.358;2022-09-09T14:14:44;1.00;;;0.40;;
74586;SDS011;63088;51.090;-115.358;2022-09-09T14:17:11;1.00;;;0.40;;
74586;SDS011;63088;51.090;-115.358;2022-09-09T14:19:40;0.90;;;0.40;;
74586;SDS011;63088;51.090;-115.358;2022-09-09T14:22:14;0.90;;;0.30;;
74586;SDS011;63088;51.090;-115.358;2022-09-09T14:24:43;0.90;;;0.30;;
74586;SDS011;63088;51.090;-115.358;2022-09-09T14:27:10;0.60;;;0.30;;
74586;SDS011;63088;51.090;-115.358;2022-09-09T14:29:40;0.80;;;0.40;;
74586;SDS011;63088;51.090;-115.358;2022-09-09T14:32:10;1.10;;;0.30;;
74586;SDS011;63088;51.090;-115.358;2022-09-09T14:34:37;0.80;;;0.30;;
74586;SDS011;63088;51.090;-115.358;2022-09-09T14:37:14;1.20;;;0.50;;
74586;SDS011;63088;51.090;-115.358;2022-09-09T14:39:44;0.90;;;0.40;;
74586;SDS011;63088;51.090;-115.358;2022-09-09T14:42:20;3.20;;;0.50;;
74586;SDS011;63088;51.090;-115.358;2022-09-09T14:44:52;1.00;;;0.40;;
74586;SDS011;63088;51.090;-115.358;2022-09-09T14:47:19;4.20;;;0.50;;
74586;SDS011;63088;51.090;-115.358;2022-09-09T14:49:46;3.50;;;0.40;;
74586;SDS011;63088;51.090;-115.358;2022-09-09T14:52:15;2.60;;;0.40;;
74586;SDS011;63088;51.090;-115.358;2022-09-09T14:54:42;1.10;;;0.40;;
74586;SDS011;63088;51.090;-115.358;2022-09-09T14:57:11;2.50;;;0.40;;
74586;SDS011;63088;51.090;-115.358;2022-09-09T14:59:56;1.00;;;0.40;;
74586;SDS011;63088;51.090;-115.358;2022-09-09T15:02:25;0.80;;;0.40;;
74586;SDS011;63088;51.090;-115.358;2022-09-09T15:04:55;2.40;;;0.40;;
74586;SDS011;63088;51.090;-115.358;2022-09-09T15:07:24;1.60;;;0.70;;
74586;SDS011;63088;51.090;-115.358;2022-09-09T15:09:52;1.90;;;0.50;;
74586;SDS011;63088;51.090;-115.358;2022-09-09T15:12:20;1.00;;;0.40;;
74586;SDS011;63088;51.090;-115.358;2022-09-09T15:17:42;1.00;;;0.40;;
74586;SDS011;63088;51.090;-115.358;2022-09-09T15:20:09;0.90;;;0.40;;
74586;SDS011;63088;51.090;-115.358;2022-09-09T15:22:38;1.60;;;0.40;;
74586;SDS011;63088;51.090;-115.358;2022-09-09T15:25:23;1.40;;;0.50;;
74586;SDS011;63088;51.090;-115.358;2022-09-09T15:27:49;1.20;;;0.50;;
74586;SDS011;63088;51.090;-115.358;2022-09-09T15:30:19;1.70;;;0.50;;
74586;SDS011;63088;51.090;-115.358;2022-09-09T15:32:46;1.40;;;0.50;;
74586;SDS011;63088;51.090;-115.358;2022-09-09T15:35:21;1.10;;;0.40;;
74586;SDS011;63088;51.090;-115.358;2022-09-09T15:37:48;1.40;;;0.40;;
74586;SDS011;63088;51.090;-115.358;2022-09-09T15:40:17;1.40;;;0.40;;
74586;SDS011;63088;51.090;-115.358;2022-09-09T15:42:56;1.00;;;0.40;;
74586;SDS011;63088;51.090;-115.358;2022-09-09T15:45:29;0.70;;;0.40;;
74586;SDS011;63088;51.090;-115.358;2022-09-09T15:48:01;1.00;;;0.50;;
74586;SDS011;63088;51.090;-115.358;2022-09-09T15:50:30;0.80;;;0.40;;
74586;SDS011;63088;51.090;-115.358;2022-09-09T15:53:04;0.90;;;0.40;;
74586;SDS011;63088;51.090;-115.358;2022-09-09T15:55:32;0.70;;;0.30;;
74586;SDS011;63088;51.090;-115.358;2022-09-09T15:57:59;1.00;;;0.50;;
74586;SDS011;63088;51.090;-115.358;2022-09-09T16:00:27;1.70;;;0.40;;
74586;SDS011;63088;51.090;-115.358;2022-09-09T16:02:54;0.80;;;0.40;;
74586;SDS011;63088;51.090;-115.358;2022-09-09T16:05:21;1.20;;;0.50;;
74586;SDS011;63088;51.090;-115.358;2022-09-09T16:07:48;1.80;;;0.50;;
74586;SDS011;63088;51.090;-115.358;2022-09-09T16:10:15;1.70;;;0.40;;
74586;SDS011;63088;51.090;-115.358;2022-09-09T16:12:45;1.00;;;0.40;;
74586;SDS011;63088;51.090;-115.358;2022-09-09T16:15:15;1.70;;;0.50;;
74586;SDS011;63088;51.090;-115.358;2022-09-09T16:17:42;1.10;;;0.40;;
74586;SDS011;63088;51.090;-115.358;2022-09-09T16:20:10;1.90;;;0.50;;
74586;SDS011;63088;51.090;-115.358;2022-09-09T16:22:42;1.50;;;0.50;;
74586;SDS011;63088;51.090;-115.358;2022-09-09T16:25:27;1.30;;;0.40;;
74586;SDS011;63088;51.090;-115.358;2022-09-09T16:28:14;1.50;;;0.40;;
74586;SDS011;63088;51.090;-115.358;2022-09-09T16:30:44;1.10;;;0.50;;
74586;SDS011;63088;51.090;-115.358;2022-09-09T16:33:11;1.60;;;0.40;;
74586;SDS011;63088;51.090;-115.358;2022-09-09T16:35:47;1.00;;;0.50;;
74586;SDS011;63088;51.090;-115.358;2022-09-09T16:38:15;1.20;;;0.50;;
74586;SDS011;63088;51.090;-115.358;2022-09-09T16:40:45;0.80;;;0.40;;
74586;SDS011;63088;51.090;-115.358;2022-09-09T16:43:13;1.40;;;0.50;;
74586;SDS011;63088;51.090;-115.358;2022-09-09T16:45:42;0.90;;;0.40;;
74586;SDS011;63088;51.090;-115.358;2022-09-09T16:48:11;1.10;;;0.60;;
74586;SDS011;63088;51.090;-115.358;2022-09-09T16:50:41;2.60;;;0.60;;
74586;SDS011;63088;51.090;-115.358;2022-09-09T16:53:08;1.50;;;0.40;;
74586;SDS011;63088;51.090;-115.358;2022-09-09T16:55:41;1.20;;;0.40;;
74586;SDS011;63088;51.090;-115.358;2022-09-09T16:58:11;1.40;;;0.50;;
74586;SDS011;63088;51.090;-115.358;2022-09-09T17:00:43;1.80;;;0.50;;
74586;SDS011;63088;51.090;-115.358;2022-09-09T17:03:17;1.40;;;0.40;;
74586;SDS011;63088;51.090;-115.358;2022-09-09T17:05:47;2.00;;;0.40;;
74586;SDS011;63088;51.090;-115.358;2022-09-09T17:08:14;0.70;;;0.40;;
74586;SDS011;63088;51.090;-115.358;2022-09-09T17:10:43;1.60;;;0.30;;
74586;SDS011;63088;51.090;-115.358;2022-09-09T17:13:47;1.20;;;0.40;;
74586;SDS011;63088;51.090;-115.358;2022-09-09T17:16:15;2.30;;;0.40;;
74586;SDS011;63088;51.090;-115.358;2022-09-09T17:18:51;4.90;;;0.60;;